Flight Track Log - Related Links

Times and Time Zones

All times are in EDT time to prevent confusion due to time zone crossing. See the N28SP flight status page for this flight to view local times or setup timezone preferences in your user account.

Time Position Orientation Groundspeed Altitude Reporting Facility
EDT Latitude Longitude Course Direction KTS MPH feet Rate Location/Type
Thu 09:29:16 AM 38.2006 -122.3217 97° East 185 213 1,600  Level Oakland Center
Thu 09:30:17 AM 38.2100 -122.3864 281° West 189 217 4,700 2,628 Climbing Oakland Center
Thu 09:31:00 AM 38.4648 -122.0465 94° East  Level FlightAware Approximate
Thu 09:31:17 AM 38.2636 -122.3894 357° North 221 254 6,900  Level Oakland Center
Thu 09:32:00 AM 38.4578 -121.9128 94° East  Level FlightAware Approximate
Thu 09:32:18 AM 38.2964 -122.3142 61° Northeast 242 278 9,000  Level Oakland Center
Thu 09:33:00 AM 38.4507 -121.7792 94° East  Level FlightAware Approximate
Thu 09:33:19 AM 38.3278 -122.2339 63° Northeast 252 290 11,100  Level Oakland Center
Thu 09:34:00 AM 38.4406 -121.6459 97° East  Level FlightAware Approximate
Thu 09:34:19 AM 38.3619 -122.1481 63° Northeast 268 308 13,300  Level Oakland Center
Thu 09:35:20 AM 38.3983 -122.0608 62° Northeast 277 319 15,300 2,262 Climbing Oakland Center
Thu 09:36:21 AM 38.4347 -121.9739 62° Northeast 279 321 17,900 2,231 Climbing Oakland Center
Thu 09:37:21 AM 38.4703 -121.8861 63° Northeast 278 320 19,800 2,083 Climbing Oakland Center
Thu 09:38:22 AM 38.5108 -121.7883 62° Northeast 286 329 22,100 1,918 Climbing Oakland Center
Thu 09:39:23 AM 38.5500 -121.6936 62° Northeast 298 343 23,700 1,636 Climbing Oakland Center
Thu 09:40:23 AM 38.5892 -121.5975 62° Northeast 303 349 25,400 1,537 Climbing Oakland Center
Thu 09:41:24 AM 38.6294 -121.4983 63° Northeast 311 358 26,800 1,180 Climbing Oakland Center
Thu 09:42:25 AM 38.6669 -121.4064 62° Northeast 324 373 27,800 1,279 Climbing Oakland Center
Thu 09:43:26 AM 38.7150 -121.2858 63° Northeast 331 381 29,400 1,475 Climbing Oakland Center
Thu 09:44:27 AM 38.7586 -121.1797 62° Northeast 332 382 30,800 1,537 Climbing Oakland Center
Thu 09:45:27 AM 38.7981 -121.0775 64° Northeast 321 369 32,500 1,388 Climbing Oakland Center
Thu 09:46:28 AM 38.8372 -120.9786 63° Northeast 314 361 33,600 934 Climbing Oakland Center
Thu 09:47:29 AM 38.8786 -120.8750 63° Northeast 324 373 34,400 787 Climbing Oakland Center
Thu 09:48:30 AM 38.9203 -120.7686 63° Northeast 333 383 35,200 744 Climbing Oakland Center
Thu 09:49:30 AM 38.9636 -120.6594 63° Northeast 341 392 35,900 744 Climbing Oakland Center
Thu 09:50:31 AM 39.0069 -120.5481 63° Northeast 348 400 36,700 738 Climbing Oakland Center
Thu 09:51:32 AM 39.0517 -120.4350 63° Northeast 354 407 37,400 885 Climbing Oakland Center
Thu 09:52:33 AM 39.0936 -120.3247 64° Northeast 346 398 38,500 787 Climbing Oakland Center
Thu 09:53:34 AM 39.1367 -120.2142 63° Northeast 346 398 39,000 248 Climbing Oakland Center
Thu 09:54:34 AM 39.1814 -120.1006 63° Northeast 357 411 39,000  Level Oakland Center
Thu 09:55:35 AM 39.2308 -119.9789 62° Northeast 375 432 39,000  Level Oakland Center
Thu 09:56:36 AM 39.2806 -119.8469 64° Northeast 405 466 39,000  Level Oakland Center
Thu 09:57:37 AM 39.3331 -119.7111 63° Northeast 428 493 39,000  Level Oakland Center
Thu 09:58:38 AM 39.3850 -119.5747 64° Northeast 427 491 39,000  Level Oakland Center
Thu 09:59:39 AM 39.4381 -119.4358 64° Northeast 430 495 39,000  Level Oakland Center
Thu 10:00:39 AM 39.4903 -119.2994 64° Northeast 423 487 39,000  Level Oakland Center
Thu 10:01:40 AM 39.5517 -119.1369 64° Northeast 416 479 39,000  Level Oakland Center
Thu 10:02:41 AM 39.6019 -119.0019 64° Northeast 413 475 39,000  Level Oakland Center
Thu 10:03:42 AM 39.6522 -118.8658 64° Northeast 413 475 39,000  Level Oakland Center
Thu 10:04:43 AM 39.7025 -118.7292 64° Northeast 415 478 39,000  Level Oakland Center
Thu 10:05:44 AM 39.7522 -118.5944 64° Northeast 412 474 39,000  Level Oakland Center
Thu 10:06:44 AM 39.8014 -118.4600 65° Northeast 409 471 39,000  Level Oakland Center
Thu 10:07:45 AM 39.8503 -118.3247 65° Northeast 411 473 39,000  Level Oakland Center
Thu 10:08:46 AM 39.8986 -118.1906 65° Northeast 410 472 39,000  Level Oakland Center
Thu 10:09:47 AM 39.9481 -118.0564 64° Northeast 410 472 39,000  Level Oakland Center
Thu 10:10:48 AM 39.9958 -117.9219 65° Northeast 409 471 39,000  Level Oakland Center
Thu 10:11:49 AM 40.0444 -117.7872 65° Northeast 410 472 39,000  Level Oakland Center
Thu 10:12:50 AM 40.0925 -117.6517 65° Northeast 410 472 39,000  Level Oakland Center
Thu 10:13:50 AM 40.1406 -117.5181 65° Northeast 407 468 39,000  Level Oakland Center
Thu 10:14:22 AM 40.1667 -117.4425 66° East 410 472 39,000  Level Salt Lake Center
Thu 10:15:24 AM 40.2125 -117.3128 65° Northeast 410 472 39,000  Level Salt Lake Center
Thu 10:16:25 AM 40.2656 -117.1625 65° Northeast 407 468 39,000  Level Salt Lake Center
Thu 10:17:27 AM 40.3103 -117.0342 65° Northeast 407 468 39,000  Level Salt Lake Center
Thu 10:18:28 AM 40.3575 -116.8969 66° East 408 470 39,000  Level Salt Lake Center
Thu 10:19:30 AM 40.4042 -116.7600 66° East 411 473 39,000  Level Salt Lake Center
Thu 10:20:32 AM 40.4581 -116.6078 65° Northeast 412 474 39,000  Level Salt Lake Center
Thu 10:22:35 AM 40.5542 -116.3269 66° East 408 470 39,000  Level Salt Lake Center
Thu 10:23:37 AM 40.5981 -116.1969 66° East 407 468 39,000  Level Salt Lake Center
Thu 10:24:38 AM 40.6406 -116.0661 67° East 409 471 39,000  Level Salt Lake Center
Thu 10:25:40 AM 40.6925 -115.9128 66° East 409 471 39,000  Level Salt Lake Center
Thu 10:26:42 AM 40.7367 -115.7814 66° East 409 471 39,000  Level Salt Lake Center
Thu 10:27:43 AM 40.7867 -115.6300 66° East 406 467 39,000  Level Salt Lake Center
Thu 10:28:45 AM 40.8292 -115.4989 67° East 406 467 39,000  Level Salt Lake Center
Thu 10:29:47 AM 40.8800 -115.3464 66° East 405 466 39,000  Level Salt Lake Center
Thu 10:30:49 AM 40.9228 -115.2158 67° East 405 466 39,000  Level Salt Lake Center
Thu 10:31:50 AM 40.9664 -115.0842 66° East 407 468 39,000  Level Salt Lake Center
Thu 10:32:52 AM 41.0164 -114.9322 66° East 404 465 39,000  Level Salt Lake Center
Thu 10:33:54 AM 41.0647 -114.7858 66° East 404 465 39,000  Level Salt Lake Center
Thu 10:34:56 AM 41.1075 -114.6503 67° East 401 461 39,000  Level Salt Lake Center
Thu 10:35:58 AM 41.1506 -114.5164 67° East 398 458 39,000  Level Salt Lake Center
Thu 10:36:59 AM 41.1919 -114.3811 68° East 396 456 39,000  Level Salt Lake Center
Thu 10:38:01 AM 41.2356 -114.2478 66° East 396 456 39,000  Level Salt Lake Center
Thu 10:39:03 AM 41.2786 -114.1133 67° East 395 455 39,000  Level Salt Lake Center
Thu 10:40:05 AM 41.3267 -113.9508 68° East 395 455 39,000  Level Salt Lake Center
Thu 10:41:07 AM 41.3686 -113.8167 67° East 394 453 39,000  Level Salt Lake Center
Thu 10:42:09 AM 41.3850 -113.6756 81° East 387 445 39,000  Level Salt Lake Center
Thu 10:43:11 AM 41.4014 -113.5353 81° East 385 443 39,000  Level Salt Lake Center
Thu 10:44:12 AM 41.4186 -113.3947 81° East 386 444 39,000  Level Salt Lake Center
Thu 10:45:14 AM 41.4375 -113.2514 80° East 392 451 39,000  Level Salt Lake Center
Thu 10:46:16 AM 41.4547 -113.1086 81° East 391 450 39,000  Level Salt Lake Center
Thu 10:47:18 AM 41.4764 -112.9375 80° East 390 449 39,000  Level Salt Lake Center
Thu 10:48:20 AM 41.4933 -112.7953 81° East 390 449 39,000  Level Salt Lake Center
Thu 10:49:22 AM 41.5106 -112.6514 81° East 392 451 39,000  Level Salt Lake Center
Thu 10:50:24 AM 41.5281 -112.5089 81° East 390 449 39,000  Level Salt Lake Center
Thu 10:51:26 AM 41.5439 -112.3658 82° East 390 449 39,000  Level Salt Lake Center
Thu 10:52:28 AM 41.5586 -112.2217 82° East 390 449 39,000  Level Salt Lake Center
Thu 10:53:30 AM 41.5744 -112.0772 82° East 392 451 39,000  Level Salt Lake Center
Thu 10:54:32 AM 41.5919 -111.9031 82° East 393 452 39,000  Level Salt Lake Center
Thu 10:55:34 AM 41.6061 -111.7589 82° East 392 451 39,000  Level Salt Lake Center
Thu 10:56:36 AM 41.6208 -111.6156 82° East 389 448 39,000  Level Salt Lake Center
Thu 10:57:38 AM 41.6353 -111.4714 82° East 389 448 39,000  Level Salt Lake Center
Thu 10:58:40 AM 41.6483 -111.3269 83° East 391 450 39,000  Level Salt Lake Center
Thu 10:59:42 AM 41.6617 -111.1842 83° East 388 447 39,000  Level Salt Lake Center
Thu 11:00:44 AM 41.6764 -111.0417 82° East 388 447 39,000  Level Salt Lake Center
Thu 11:01:46 AM 41.6908 -110.8806 83° East 387 445 39,000  Level Salt Lake Center
Thu 11:02:49 AM 41.7053 -110.7208 83° East 387 445 39,000  Level Salt Lake Center
Thu 11:03:51 AM 41.7178 -110.5831 83° East 389 448 39,000  Level Salt Lake Center
Thu 11:04:53 AM 41.7328 -110.4236 83° East 388 447 39,000  Level Salt Lake Center
Thu 11:05:55 AM 41.7444 -110.2864 83° East 388 447 39,000  Level Salt Lake Center
Thu 11:06:57 AM 41.7558 -110.1489 84° East 387 445 39,000  Level Salt Lake Center
Thu 11:07:59 AM 41.7694 -109.9889 83° East 388 447 39,000  Level Salt Lake Center
Thu 11:09:01 AM 41.7819 -109.8514 83° East 388 447 39,000  Level Salt Lake Center
Thu 11:10:03 AM 41.7947 -109.6917 84° East 387 445 39,000  Level Salt Lake Center
Thu 11:11:05 AM 41.8056 -109.5542 84° East 386 444 39,000  Level Salt Lake Center
Thu 11:12:07 AM 41.8194 -109.3947 83° East 386 444 39,000  Level Salt Lake Center
Thu 11:13:09 AM 41.8311 -109.2567 83° East 386 444 39,000  Level Salt Lake Center
Thu 11:14:11 AM 41.8431 -109.0939 84° East 389 448 39,000  Level Salt Lake Center
Thu 11:15:13 AM 41.8533 -108.9536 84° East 393 452 39,000  Level Salt Lake Center
Thu 11:16:15 AM 41.8633 -108.8153 84° East 390 449 39,000  Level Salt Lake Center
Thu 11:17:17 AM 41.8750 -108.6531 84° East 392 451 39,000  Level Salt Lake Center
Thu 11:18:19 AM 41.8844 -108.5153 85° East 389 448 39,000  Level Salt Lake Center
Thu 11:19:21 AM 41.8983 -108.3536 83° East 390 449 39,000  Level Salt Lake Center
Thu 11:20:23 AM 41.9083 -108.2158 84° East 389 448 39,000  Level Salt Lake Center
Thu 11:21:25 AM 41.9164 -108.0506 86° East 396 456 39,000  Level Salt Lake Center
Thu 11:22:27 AM 41.9253 -107.9100 85° East 397 457 39,000  Level Salt Lake Center
Thu 11:23:30 AM 41.9364 -107.7489 85° East 389 448 39,000  Level Salt Lake Center
Thu 11:24:32 AM 41.9439 -107.6117 86° East 385 443 39,000  Level Salt Lake Center
Thu 11:25:11 AM 41.9517 -107.5183 84° East 388 447 39,000  Level Denver Center
Thu 11:26:13 AM 41.9611 -107.3586 85° East 385 443 39,000  Level Denver Center
Thu 11:27:15 AM 41.9697 -107.2206 85° East 387 445 39,000  Level Denver Center
Thu 11:28:17 AM 41.9800 -107.0622 85° East 383 441 39,000  Level Denver Center
Thu 11:29:19 AM 41.9864 -106.9239 86° East 386 444 39,000  Level Denver Center
Thu 11:30:21 AM 41.9969 -106.7644 85° East 384 442 39,000  Level Denver Center
Thu 11:31:23 AM 42.0044 -106.6269 86° East 385 443 39,000  Level Denver Center
Thu 11:32:25 AM 42.0117 -106.4758 86° East 388 447 39,000  Level Denver Center
Thu 11:33:27 AM 42.0194 -106.3375 86° East 389 448 39,000  Level Denver Center
Thu 11:34:29 AM 42.0281 -106.1781 86° East 384 442 39,000  Level Denver Center
Thu 11:35:31 AM 42.0356 -106.0394 86° East 387 445 39,000  Level Denver Center
Thu 11:36:34 AM 42.0428 -105.8781 86° East 389 448 39,000  Level Denver Center
Thu 11:37:36 AM 42.0478 -105.7397 87° East 387 445 39,000  Level Denver Center
Thu 11:38:38 AM 42.0550 -105.5786 86° East 388 447 39,000  Level Denver Center
Thu 11:39:40 AM 42.0625 -105.4408 86° East 387 445 39,000  Level Denver Center
Thu 11:40:42 AM 42.0697 -105.2825 86° East 383 441 39,000  Level Denver Center
Thu 11:41:56 AM 42.0783 -105.0986 86° East 388 447 39,000  Level Denver Center
Thu 11:42:58 AM 42.0911 -104.9653 83° East 381 438 39,000  Level Denver Center
Thu 11:44:01 AM 42.1044 -104.8064 83° East 383 441 39,000  Level Denver Center
Thu 11:45:03 AM 42.1161 -104.6694 83° East 386 444 39,000  Level Denver Center
Thu 11:46:05 AM 42.1292 -104.5106 84° East 386 444 39,000  Level Denver Center
Thu 11:47:07 AM 42.1414 -104.3731 83° East 389 448 39,000  Level Denver Center
Thu 11:48:09 AM 42.1547 -104.2136 84° East 388 447 39,000  Level Denver Center
Thu 11:49:11 AM 42.1653 -104.0767 84° East 386 444 39,000  Level Denver Center
Thu 11:50:13 AM 42.1786 -103.9161 84° East 387 445 39,000  Level Denver Center
Thu 11:51:15 AM 42.1903 -103.7781 83° East 389 448 39,000  Level Denver Center
Thu 11:52:17 AM 42.2019 -103.6172 84° East 388 447 39,000  Level Denver Center
Thu 11:53:19 AM 42.2125 -103.4797 84° East 387 445 39,000  Level Denver Center
Thu 11:54:21 AM 42.2222 -103.3406 85° East 390 449 39,000  Level Denver Center
Thu 11:55:23 AM 42.2344 -103.1786 84° East 389 448 39,000  Level Denver Center
Thu 11:56:25 AM 42.2447 -103.0403 84° East 390 449 39,000  Level Denver Center
Thu 11:57:27 AM 42.2569 -102.8772 84° East 391 450 39,000  Level Denver Center
Thu 11:58:29 AM 42.2661 -102.7361 85° East 395 455 39,000  Level Denver Center
Thu 11:59:32 AM 42.2764 -102.5717 85° East 396 456 39,000  Level Denver Center
Thu 12:00:34 PM 42.2881 -102.4289 84° East 400 460 39,000  Level Denver Center
Thu 12:01:36 PM 42.2983 -102.2631 85° East 399 459 39,000  Level Denver Center
Thu 12:02:38 PM 42.3061 -102.1208 86° East 399 459 39,000  Level Denver Center
Thu 12:03:40 PM 42.3169 -101.9547 85° East 398 458 39,000  Level Denver Center
Thu 12:04:42 PM 42.3272 -101.7983 85° East 400 460 39,000  Level Denver Center
Thu 12:05:44 PM 42.3361 -101.6544 85° East 400 460 39,000  Level Denver Center
Thu 12:06:46 PM 42.3450 -101.4889 86° East 396 456 39,000  Level Denver Center
Thu 12:07:48 PM 42.3536 -101.3453 85° East 398 458 39,000  Level Denver Center
Thu 12:08:50 PM 42.3619 -101.1811 86° East 394 453 39,000  Level Denver Center
Thu 12:09:52 PM 42.3692 -101.0419 86° East 388 447 39,000  Level Denver Center
Thu 12:10:54 PM 42.3758 -100.8981 86° East 395 455 39,000  Level Denver Center
Thu 12:11:56 PM 42.3856 -100.7331 85° East 394 453 39,000  Level Denver Center
Thu 12:12:58 PM 42.3922 -100.5897 86° East 397 457 39,000  Level Denver Center
Thu 12:14:01 PM 42.4011 -100.4250 86° East 394 453 39,000  Level Denver Center
Thu 12:15:03 PM 42.4072 -100.2825 87° East 397 457 39,000 1,065 Level Denver Center
Thu 12:16:05 PM 42.4142 -100.1225 87° East 386 444 41,200 1,452 Climbing Denver Center
Thu 12:17:07 PM 42.4192 -100.0003 87° East 353 406 42,000 823 Climbing Denver Center
Thu 12:18:09 PM 42.4258 -99.8603 86° East 339 390 42,900 484 Climbing Denver Center
Thu 12:19:11 PM 42.4311 -99.7422 86° East 339 390 43,000 48 Climbing Denver Center
Thu 12:20:13 PM 42.4369 -99.6067 87° East 352 405 43,000  Level Denver Center
Thu 12:20:55 PM 42.4406 -99.5000 87° East 356 410 43,000  Level Minneapolis Center
Thu 12:21:57 PM 42.4469 -99.3564 87° East 370 426 43,000  Level Minneapolis Center
Thu 12:22:59 PM 42.4528 -99.2131 87° East 377 434 43,000  Level Minneapolis Center
Thu 12:24:01 PM 42.4586 -99.0678 87° East 383 441 43,000  Level Minneapolis Center
Thu 12:25:03 PM 42.4631 -98.9283 87° East 376 433 43,000  Level Minneapolis Center
Thu 12:26:05 PM 42.4683 -98.7592 88° East 374 430 43,000  Level Minneapolis Center
Thu 12:27:07 PM 42.4742 -98.6186 87° East 373 429 43,000  Level Minneapolis Center
Thu 12:28:10 PM 42.4817 -98.4781 86° East 374 430 43,000  Level Minneapolis Center
Thu 12:29:12 PM 42.4892 -98.3386 86° East 371 427 43,000  Level Minneapolis Center
Thu 12:30:14 PM 42.4942 -98.1961 87° East 377 434 43,000  Level Minneapolis Center
Thu 12:31:16 PM 42.5014 -98.0553 86° East 376 433 43,000  Level Minneapolis Center
Thu 12:32:18 PM 42.5089 -97.8861 87° East 376 433 43,000  Level Minneapolis Center
Thu 12:33:20 PM 42.5147 -97.7667 86° East 376 433 43,000  Level Minneapolis Center
Thu 12:34:22 PM 42.5222 -97.5956 87° East 379 436 43,000  Level Minneapolis Center
Thu 12:35:24 PM 42.5275 -97.4517 87° East 382 440 43,000  Level Minneapolis Center
Thu 12:36:26 PM 42.5336 -97.3092 87° East 380 437 43,000  Level Minneapolis Center
Thu 12:37:28 PM 42.5392 -97.1664 87° East 378 435 43,000  Level Minneapolis Center
Thu 12:38:30 PM 42.5433 -97.0225 88° East 381 438 43,000  Level Minneapolis Center
Thu 12:39:32 PM 42.5483 -96.8803 87° East 378 435 43,000  Level Minneapolis Center
Thu 12:40:34 PM 42.5539 -96.7367 87° East 380 437 43,000  Level Minneapolis Center
Thu 12:41:36 PM 42.5608 -96.5622 87° East 386 444 43,000  Level Minneapolis Center
Thu 12:42:39 PM 42.5642 -96.4175 88° East 385 443 43,000  Level Minneapolis Center
Thu 12:43:41 PM 42.5683 -96.2725 88° East 384 442 43,000  Level Minneapolis Center
Thu 12:44:43 PM 42.5739 -96.1261 87° East 387 445 43,000  Level Minneapolis Center
Thu 12:45:45 PM 42.5775 -95.9792 88° East 389 448 43,000  Level Minneapolis Center
Thu 12:46:47 PM 42.5808 -95.8347 88° East 385 443 43,000  Level Minneapolis Center
Thu 12:47:49 PM 42.5856 -95.6597 88° East 385 443 43,000  Level Minneapolis Center
Thu 12:48:51 PM 42.5892 -95.5136 88° East 386 444 43,000  Level Minneapolis Center
Thu 12:49:53 PM 42.5922 -95.3700 88° East 384 442 43,000  Level Minneapolis Center
Thu 12:50:55 PM 42.5969 -95.2272 87° East 382 440 43,000  Level Minneapolis Center
Thu 12:51:57 PM 42.5986 -95.0789 89° East 387 445 43,000  Level Minneapolis Center
Thu 12:52:59 PM 42.6014 -94.9344 88° East 385 443 43,000  Level Minneapolis Center
Thu 12:54:01 PM 42.6044 -94.7886 88° East 386 444 43,000  Level Minneapolis Center
Thu 12:55:03 PM 42.6069 -94.6133 89° East 388 447 43,000  Level Minneapolis Center
Thu 12:56:05 PM 42.6072 -94.4761 90° East 389 448 43,000  Level Minneapolis Center
Thu 12:57:08 PM 42.6100 -94.3319 88° East 389 448 43,000  Level Minneapolis Center
Thu 12:58:10 PM 42.6061 -94.1853 92° East 390 449 43,000  Level Minneapolis Center
Thu 12:59:12 PM 42.5994 -94.0097 93° East 393 452 43,000  Level Minneapolis Center
Thu 01:00:14 PM 42.5917 -93.8625 94° East 394 453 43,000  Level Minneapolis Center
Thu 01:01:16 PM 42.5836 -93.7167 94° East 393 452 43,000  Level Minneapolis Center
Thu 01:02:18 PM 42.5775 -93.5694 93° East 394 453 43,000  Level Minneapolis Center
Thu 01:03:20 PM 42.5467 -93.3964 104° East 396 456 43,000  Level Minneapolis Center
Thu 01:04:22 PM 42.5136 -93.2539 107° East 400 460 43,000  Level Minneapolis Center
Thu 01:05:24 PM 42.4808 -93.1094 107° East 405 466 43,000  Level Minneapolis Center
Thu 01:06:27 PM 42.4483 -92.9675 107° East 401 461 43,000  Level Minneapolis Center
Thu 01:07:29 PM 42.4447 -92.8222 92° East 392 451 43,000  Level Minneapolis Center
Thu 01:08:31 PM 42.4336 -92.6494 95° East 389 448 43,000 -629 Level Minneapolis Center
Thu 01:09:33 PM 42.4256 -92.5022 94° East 392 451 41,700 -1,355 Descending Minneapolis Center
Thu 01:10:35 PM 42.4142 -92.3475 96° East 407 468 40,200 -1,645 Descending Minneapolis Center
Thu 01:11:37 PM 42.4031 -92.1908 95° East 419 482 38,300 -2,032 Descending Minneapolis Center
Thu 01:12:39 PM 42.3897 -92.0061 96° East 420 483 36,000 -2,032 Descending Minneapolis Center
Thu 01:13:41 PM 42.3792 -91.8519 95° East 419 482 34,100 -1,839 Descending Minneapolis Center
Thu 01:14:43 PM 42.3669 -91.6992 96° East 417 480 32,200 -1,887 Descending Minneapolis Center
Thu 01:15:45 PM 42.3558 -91.5456 96° East 417 480 30,200 -2,081 Descending Minneapolis Center
Thu 01:16:47 PM 42.3419 -91.3558 96° East 427 491 27,900 -2,032 Descending Minneapolis Center
Thu 01:17:49 PM 42.3508 -91.1978 86° East 430 495 26,000 -1,824 Descending Minneapolis Center
Thu 01:18:52 PM 42.3658 -91.0444 82° East 422 486 24,100 -1,828 Descending Minneapolis Center
Thu 01:20:20 PM 42.3781 -90.8375 85° East 403 464 21,400 -2,026 Descending Chicago Center
Thu 01:21:23 PM 42.3761 -90.6675 91° East 384 442 19,000 -1,968 Descending Chicago Center
Thu 01:22:25 PM 42.3769 -90.5336 89° East 367 422 17,300 -1,790 Descending Chicago Center
Thu 01:23:27 PM 42.3739 -90.4039 92° East 356 410 15,300 -1,935 Descending Chicago Center
Thu 01:24:29 PM 42.3517 -90.2789 103° East 348 400 13,300 -1,984 Descending Chicago Center
Thu 01:25:31 PM 42.3256 -90.1306 103° East 344 396 11,200 -1,984 Descending Chicago Center
Thu 01:26:33 PM 42.3053 -90.0181 104° East 317 365 9,200 -1,548 Descending Chicago Center
Thu 01:27:35 PM 42.2847 -89.9119 105° East 300 345 8,000 -581 Descending Chicago Center
Thu 01:28:37 PM 42.2667 -89.8067 103° East 293 337 8,000 -484 Level Chicago Center
Thu 01:29:39 PM 42.2475 -89.6989 103° East 297 342 7,000 -1,452 Descending Chicago Center
Thu 01:30:41 PM 42.2267 -89.5908 105° East 283 326 5,000 -1,306 Descending Chicago Center
Thu 01:31:43 PM 42.2022 -89.4789 106° East 279 321 4,300 -677 Descending Chicago Center
Thu 01:33:00 PM 42.2011 -89.3034 114° Southeast  Level FlightAware Approximate
Thu 01:40:00 PM 42.1954 -89.0972 109° East  Level Estimated
Thu 01:41:00 PM 42.1954 -89.0972 109° East  Level Estimated
Thu 01:42:00 PM 42.1954 -89.0972 109° East  Level Estimated

Login

Don't have an account? Register now (free) for customized features, flight alerts, and more!